Altha, Florida
Current Conditions -  °F | °C
As of 2:53 PM on Saturday 25 Oct 2014 (Local Time) from KMAI Reporting Station
Clear Clear  
Wind Chill: 26°   Ceiling: Unl
Heat Index: 26°   Visibility: 10mi
Dew Point:   Wind: 12mph
Humidity: 27%   Direction: 360°N
Pressure: 30"   Gusts: NA
Location:  30.57°N, 85.13°W
Report Text: KMAI 251953Z AUTO 36010KT 10SM CLR 26/06 A3000 RMK AO2 SLP156 T02610056 $
Loading
Personal Weather Stations






























Interactive Weather Map
Tropical Storm Tracking
New forecast layout! Learn more

10-Day Weather Forecast

Advertisements
Track Severe Weather on mobile